Аэропорт: Талаги. Архангельск

ICAO: ULAA

METAR:
2020-08-09 22:00:00
ULAA 092200Z 15003MPS 120V180 9999 SCT030 13/13 Q1012 R08/CLRD68 NOSIG RMK QFE758/1011
METAR:
2020-08-09 20:00:00
TAF ULAA 092000Z 0921/1021 11003MPS 9999 BKN017 TEMPO 1000/1005 06003MPS 6000 -SHRA BKN007 BKN016CB TEMPO 1005/1018 06003G09MPS 6000 -SHRA BKN011 BKN016CB BECMG 1018/1019 02003G09MPS